sensor_id;sensor_type;location;lat;lon;timestamp;P1;durP1;ratioP1;P2;durP2;ratioP2
64037;SDS011;54641;50.168;8.492;2022-10-04T00:00:09;9.10;;;5.20;;
64037;SDS011;54641;50.168;8.492;2022-10-04T00:02:51;14.10;;;5.20;;
64037;SDS011;54641;50.168;8.492;2022-10-04T00:05:24;8.90;;;4.90;;
64037;SDS011;54641;50.168;8.492;2022-10-04T00:07:57;12.90;;;6.80;;
64037;SDS011;54641;50.168;8.492;2022-10-04T00:10:41;10.80;;;5.50;;
64037;SDS011;54641;50.168;8.492;2022-10-04T00:13:13;8.50;;;4.60;;
64037;SDS011;54641;50.168;8.492;2022-10-04T00:15:50;12.60;;;4.30;;
64037;SDS011;54641;50.168;8.492;2022-10-04T00:18:21;9.20;;;5.90;;
64037;SDS011;54641;50.168;8.492;2022-10-04T00:21:00;10.00;;;5.00;;
64037;SDS011;54641;50.168;8.492;2022-10-04T00:23:41;11.00;;;6.00;;
64037;SDS011;54641;50.168;8.492;2022-10-04T00:27:08;9.00;;;5.00;;
64037;SDS011;54641;50.168;8.492;2022-10-04T00:29:32;8.40;;;4.80;;
64037;SDS011;54641;50.168;8.492;2022-10-04T00:38:13;11.20;;;6.00;;
64037;SDS011;54641;50.168;8.492;2022-10-04T00:40:45;14.30;;;5.40;;
64037;SDS011;54641;50.168;8.492;2022-10-04T00:43:21;15.30;;;5.50;;
64037;SDS011;54641;50.168;8.492;2022-10-04T00:45:55;11.10;;;4.10;;
64037;SDS011;54641;50.168;8.492;2022-10-04T00:48:33;12.70;;;5.30;;
64037;SDS011;54641;50.168;8.492;2022-10-04T00:51:09;10.80;;;5.90;;
64037;SDS011;54641;50.168;8.492;2022-10-04T00:54:02;11.30;;;6.40;;
64037;SDS011;54641;50.168;8.492;2022-10-04T00:56:36;15.70;;;6.70;;
64037;SDS011;54641;50.168;8.492;2022-10-04T00:59:12;11.00;;;5.50;;
64037;SDS011;54641;50.168;8.492;2022-10-04T01:01:57;10.50;;;5.40;;
64037;SDS011;54641;50.168;8.492;2022-10-04T01:04:32;14.50;;;5.30;;
64037;SDS011;54641;50.168;8.492;2022-10-04T01:07:07;11.30;;;5.70;;
64037;SDS011;54641;50.168;8.492;2022-10-04T01:09:40;11.20;;;5.70;;
64037;SDS011;54641;50.168;8.492;2022-10-04T01:12:19;10.80;;;5.40;;
64037;SDS011;54641;50.168;8.492;2022-10-04T01:15:03;10.00;;;5.30;;
64037;SDS011;54641;50.168;8.492;2022-10-04T01:17:35;10.80;;;5.60;;
64037;SDS011;54641;50.168;8.492;2022-10-04T01:20:12;10.20;;;4.80;;
64037;SDS011;54641;50.168;8.492;2022-10-04T01:22:58;9.60;;;4.50;;
64037;SDS011;54641;50.168;8.492;2022-10-04T01:25:45;10.70;;;5.80;;
64037;SDS011;54641;50.168;8.492;2022-10-04T01:28:17;12.50;;;5.90;;
64037;SDS011;54641;50.168;8.492;2022-10-04T01:30:48;12.50;;;5.50;;
64037;SDS011;54641;50.168;8.492;2022-10-04T01:33:19;12.60;;;5.40;;
64037;SDS011;54641;50.168;8.492;2022-10-04T01:35:52;9.50;;;5.20;;
64037;SDS011;54641;50.168;8.492;2022-10-04T01:38:22;11.20;;;6.20;;
64037;SDS011;54641;50.168;8.492;2022-10-04T01:40:54;13.30;;;6.30;;
64037;SDS011;54641;50.168;8.492;2022-10-04T01:43:28;8.80;;;5.10;;
64037;SDS011;54641;50.168;8.492;2022-10-04T01:46:03;8.60;;;5.40;;
64037;SDS011;54641;50.168;8.492;2022-10-04T01:48:36;13.90;;;5.70;;
64037;SDS011;54641;50.168;8.492;2022-10-04T01:51:10;12.30;;;5.30;;
64037;SDS011;54641;50.168;8.492;2022-10-04T01:53:45;9.60;;;4.90;;
64037;SDS011;54641;50.168;8.492;2022-10-04T01:56:18;11.00;;;4.90;;
64037;SDS011;54641;50.168;8.492;2022-10-04T01:58:52;8.40;;;4.70;;
64037;SDS011;54641;50.168;8.492;2022-10-04T02:01:26;13.80;;;6.30;;
64037;SDS011;54641;50.168;8.492;2022-10-04T02:04:00;16.60;;;7.90;;
64037;SDS011;54641;50.168;8.492;2022-10-04T02:07:46;8.70;;;5.20;;
64037;SDS011;54641;50.168;8.492;2022-10-04T02:10:19;12.60;;;6.20;;
64037;SDS011;54641;50.168;8.492;2022-10-04T02:12:51;13.90;;;6.10;;
64037;SDS011;54641;50.168;8.492;2022-10-04T02:15:22;17.10;;;6.10;;
64037;SDS011;54641;50.168;8.492;2022-10-04T02:17:54;9.90;;;5.40;;
64037;SDS011;54641;50.168;8.492;2022-10-04T02:20:25;14.50;;;6.00;;
64037;SDS011;54641;50.168;8.492;2022-10-04T02:22:57;9.00;;;5.80;;
64037;SDS011;54641;50.168;8.492;2022-10-04T02:25:30;10.90;;;6.00;;
64037;SDS011;54641;50.168;8.492;2022-10-04T02:28:01;11.20;;;6.10;;
64037;SDS011;54641;50.168;8.492;2022-10-04T02:30:35;16.30;;;7.00;;
64037;SDS011;54641;50.168;8.492;2022-10-04T02:33:08;11.20;;;6.20;;
64037;SDS011;54641;50.168;8.492;2022-10-04T02:35:42;12.40;;;6.60;;
64037;SDS011;54641;50.168;8.492;2022-10-04T02:38:16;10.50;;;5.80;;
64037;SDS011;54641;50.168;8.492;2022-10-04T02:40:52;12.40;;;6.50;;
64037;SDS011;54641;50.168;8.492;2022-10-04T02:43:26;11.30;;;5.40;;
64037;SDS011;54641;50.168;8.492;2022-10-04T02:46:01;11.00;;;5.10;;
64037;SDS011;54641;50.168;8.492;2022-10-04T02:48:36;12.90;;;6.60;;
64037;SDS011;54641;50.168;8.492;2022-10-04T02:51:13;9.40;;;5.30;;
64037;SDS011;54641;50.168;8.492;2022-10-04T02:53:49;12.40;;;5.40;;
64037;SDS011;54641;50.168;8.492;2022-10-04T02:56:29;11.80;;;5.10;;
64037;SDS011;54641;50.168;8.492;2022-10-04T02:59:02;13.80;;;5.20;;
64037;SDS011;54641;50.168;8.492;2022-10-04T03:01:39;12.10;;;5.80;;
64037;SDS011;54641;50.168;8.492;2022-10-04T03:04:15;12.50;;;5.80;;
64037;SDS011;54641;50.168;8.492;2022-10-04T03:06:47;12.70;;;6.10;;
64037;SDS011;54641;50.168;8.492;2022-10-04T03:09:19;12.40;;;5.60;;
64037;SDS011;54641;50.168;8.492;2022-10-04T03:11:56;9.50;;;5.80;;
64037;SDS011;54641;50.168;8.492;2022-10-04T03:14:28;10.90;;;5.80;;
64037;SDS011;54641;50.168;8.492;2022-10-04T03:17:01;12.80;;;6.00;;
64037;SDS011;54641;50.168;8.492;2022-10-04T03:19:33;11.70;;;6.40;;
64037;SDS011;54641;50.168;8.492;2022-10-04T03:22:07;13.60;;;5.80;;
64037;SDS011;54641;50.168;8.492;2022-10-04T03:24:42;9.30;;;5.30;;
64037;SDS011;54641;50.168;8.492;2022-10-04T03:27:18;8.90;;;5.60;;
64037;SDS011;54641;50.168;8.492;2022-10-04T03:29:50;10.50;;;5.40;;
64037;SDS011;54641;50.168;8.492;2022-10-04T03:32:26;12.20;;;5.80;;
64037;SDS011;54641;50.168;8.492;2022-10-04T03:34:59;12.40;;;5.30;;
64037;SDS011;54641;50.168;8.492;2022-10-04T03:37:33;17.30;;;6.70;;
64037;SDS011;54641;50.168;8.492;2022-10-04T03:40:08;10.50;;;5.60;;
64037;SDS011;54641;50.168;8.492;2022-10-04T03:42:39;7.80;;;4.30;;
64037;SDS011;54641;50.168;8.492;2022-10-04T03:45:12;13.80;;;5.90;;
64037;SDS011;54641;50.168;8.492;2022-10-04T03:47:45;8.80;;;5.10;;
64037;SDS011;54641;50.168;8.492;2022-10-04T03:50:17;9.10;;;5.70;;
64037;SDS011;54641;50.168;8.492;2022-10-04T03:52:51;12.50;;;5.70;;
64037;SDS011;54641;50.168;8.492;2022-10-04T03:55:24;10.60;;;5.60;;
64037;SDS011;54641;50.168;8.492;2022-10-04T03:57:58;10.40;;;5.20;;
64037;SDS011;54641;50.168;8.492;2022-10-04T04:00:30;14.80;;;5.90;;
64037;SDS011;54641;50.168;8.492;2022-10-04T04:03:04;14.30;;;6.10;;
64037;SDS011;54641;50.168;8.492;2022-10-04T04:05:38;12.20;;;6.00;;
64037;SDS011;54641;50.168;8.492;2022-10-04T04:08:12;14.60;;;7.40;;
64037;SDS011;54641;50.168;8.492;2022-10-04T04:10:46;15.90;;;6.90;;
64037;SDS011;54641;50.168;8.492;2022-10-04T04:13:21;17.30;;;7.20;;
64037;SDS011;54641;50.168;8.492;2022-10-04T04:15:54;14.20;;;7.40;;
64037;SDS011;54641;50.168;8.492;2022-10-04T04:18:26;13.80;;;7.30;;
64037;SDS011;54641;50.168;8.492;2022-10-04T04:20:58;18.20;;;8.30;;
64037;SDS011;54641;50.168;8.492;2022-10-04T04:23:30;15.80;;;8.00;;
64037;SDS011;54641;50.168;8.492;2022-10-04T04:26:11;16.00;;;7.80;;
64037;SDS011;54641;50.168;8.492;2022-10-04T04:28:43;20.80;;;8.20;;
64037;SDS011;54641;50.168;8.492;2022-10-04T04:31:17;18.60;;;9.30;;
64037;SDS011;54641;50.168;8.492;2022-10-04T04:33:53;18.70;;;9.00;;
64037;SDS011;54641;50.168;8.492;2022-10-04T04:36:29;16.40;;;10.00;;
64037;SDS011;54641;50.168;8.492;2022-10-04T04:39:07;19.50;;;9.30;;
64037;SDS011;54641;50.168;8.492;2022-10-04T04:41:58;16.60;;;9.00;;
64037;SDS011;54641;50.168;8.492;2022-10-04T04:44:30;18.10;;;9.00;;
64037;SDS011;54641;50.168;8.492;2022-10-04T04:47:03;20.40;;;9.50;;
64037;SDS011;54641;50.168;8.492;2022-10-04T04:49:36;16.90;;;9.30;;
64037;SDS011;54641;50.168;8.492;2022-10-04T04:52:11;21.10;;;9.30;;
64037;SDS011;54641;50.168;8.492;2022-10-04T04:54:44;21.50;;;9.90;;
64037;SDS011;54641;50.168;8.492;2022-10-04T04:57:17;19.70;;;10.20;;
64037;SDS011;54641;50.168;8.492;2022-10-04T04:59:48;20.90;;;10.70;;
64037;SDS011;54641;50.168;8.492;2022-10-04T05:05:16;19.10;;;10.80;;
64037;SDS011;54641;50.168;8.492;2022-10-04T05:07:47;20.30;;;9.60;;
64037;SDS011;54641;50.168;8.492;2022-10-04T05:10:29;22.10;;;10.00;;
64037;SDS011;54641;50.168;8.492;2022-10-04T05:13:01;20.10;;;9.20;;
64037;SDS011;54641;50.168;8.492;2022-10-04T05:15:35;19.70;;;9.50;;
64037;SDS011;54641;50.168;8.492;2022-10-04T05:18:13;19.20;;;9.10;;
64037;SDS011;54641;50.168;8.492;2022-10-04T05:20:49;21.70;;;9.20;;
64037;SDS011;54641;50.168;8.492;2022-10-04T05:23:21;21.20;;;9.50;;
64037;SDS011;54641;50.168;8.492;2022-10-04T05:25:51;15.50;;;7.70;;
64037;SDS011;54641;50.168;8.492;2022-10-04T05:28:22;13.60;;;7.30;;
64037;SDS011;54641;50.168;8.492;2022-10-04T05:33:57;12.50;;;6.60;;
64037;SDS011;54641;50.168;8.492;2022-10-04T05:36:52;14.20;;;7.80;;
64037;SDS011;54641;50.168;8.492;2022-10-04T05:39:30;9.60;;;5.90;;
64037;SDS011;54641;50.168;8.492;2022-10-04T05:42:08;16.80;;;7.00;;
64037;SDS011;54641;50.168;8.492;2022-10-04T05:44:48;14.30;;;6.50;;
64037;SDS011;54641;50.168;8.492;2022-10-04T05:47:19;11.80;;;6.70;;
64037;SDS011;54641;50.168;8.492;2022-10-04T05:49:53;12.90;;;7.60;;
64037;SDS011;54641;50.168;8.492;2022-10-04T05:52:28;13.50;;;6.80;;
64037;SDS011;54641;50.168;8.492;2022-10-04T05:55:16;14.00;;;8.50;;
64037;SDS011;54641;50.168;8.492;2022-10-04T05:58:02;9.60;;;6.10;;
64037;SDS011;54641;50.168;8.492;2022-10-04T06:00:48;17.10;;;7.60;;
64037;SDS011;54641;50.168;8.492;2022-10-04T06:03:42;16.40;;;7.40;;
64037;SDS011;54641;50.168;8.492;2022-10-04T06:06:44;14.90;;;7.70;;
64037;SDS011;54641;50.168;8.492;2022-10-04T06:09:24;16.80;;;10.40;;
64037;SDS011;54641;50.168;8.492;2022-10-04T06:12:06;19.90;;;12.20;;
64037;SDS011;54641;50.168;8.492;2022-10-04T06:14:43;17.70;;;9.30;;
64037;SDS011;54641;50.168;8.492;2022-10-04T06:17:30;17.00;;;9.10;;
64037;SDS011;54641;50.168;8.492;2022-10-04T06:20:10;19.10;;;9.50;;
64037;SDS011;54641;50.168;8.492;2022-10-04T06:22:48;13.90;;;8.10;;
64037;SDS011;54641;50.168;8.492;2022-10-04T06:25:26;11.90;;;6.60;;
64037;SDS011;54641;50.168;8.492;2022-10-04T06:28:01;14.80;;;7.70;;
64037;SDS011;54641;50.168;8.492;2022-10-04T06:30:50;16.50;;;8.90;;
64037;SDS011;54641;50.168;8.492;2022-10-04T06:33:33;15.90;;;7.80;;
64037;SDS011;54641;50.168;8.492;2022-10-04T06:36:18;13.20;;;7.40;;
64037;SDS011;54641;50.168;8.492;2022-10-04T06:39:16;15.70;;;8.10;;
64037;SDS011;54641;50.168;8.492;2022-10-04T06:44:57;17.00;;;9.80;;
64037;SDS011;54641;50.168;8.492;2022-10-04T06:47:50;25.20;;;9.70;;
64037;SDS011;54641;50.168;8.492;2022-10-04T06:50:34;16.30;;;7.60;;
64037;SDS011;54641;50.168;8.492;2022-10-04T06:53:15;16.60;;;7.70;;
64037;SDS011;54641;50.168;8.492;2022-10-04T06:55:55;14.40;;;7.90;;
64037;SDS011;54641;50.168;8.492;2022-10-04T06:58:47;13.20;;;8.10;;
64037;SDS011;54641;50.168;8.492;2022-10-04T07:01:27;19.40;;;8.10;;
64037;SDS011;54641;50.168;8.492;2022-10-04T07:04:02;14.10;;;7.80;;
64037;SDS011;54641;50.168;8.492;2022-10-04T07:06:39;13.90;;;7.40;;
64037;SDS011;54641;50.168;8.492;2022-10-04T07:09:17;15.90;;;8.30;;
64037;SDS011;54641;50.168;8.492;2022-10-04T07:11:50;15.10;;;8.40;;
64037;SDS011;54641;50.168;8.492;2022-10-04T07:14:23;18.50;;;9.60;;
64037;SDS011;54641;50.168;8.492;2022-10-04T07:17:00;17.70;;;9.10;;
64037;SDS011;54641;50.168;8.492;2022-10-04T07:19:34;11.80;;;8.00;;
64037;SDS011;54641;50.168;8.492;2022-10-04T07:22:11;14.70;;;8.80;;
64037;SDS011;54641;50.168;8.492;2022-10-04T07:24:47;14.60;;;8.40;;
64037;SDS011;54641;50.168;8.492;2022-10-04T07:27:23;15.30;;;8.50;;
64037;SDS011;54641;50.168;8.492;2022-10-04T07:29:57;13.00;;;8.30;;
64037;SDS011;54641;50.168;8.492;2022-10-04T07:32:31;16.10;;;8.10;;
64037;SDS011;54641;50.168;8.492;2022-10-04T07:35:03;17.20;;;8.10;;
64037;SDS011;54641;50.168;8.492;2022-10-04T07:37:46;16.60;;;8.60;;
64037;SDS011;54641;50.168;8.492;2022-10-04T07:40:20;15.60;;;8.70;;
64037;SDS011;54641;50.168;8.492;2022-10-04T07:42:53;12.40;;;6.80;;
64037;SDS011;54641;50.168;8.492;2022-10-04T07:45:27;15.00;;;8.50;;
64037;SDS011;54641;50.168;8.492;2022-10-04T07:48:08;13.70;;;8.20;;
64037;SDS011;54641;50.168;8.492;2022-10-04T07:50:43;13.90;;;8.20;;
64037;SDS011;54641;50.168;8.492;2022-10-04T07:53:19;13.30;;;7.40;;
64037;SDS011;54641;50.168;8.492;2022-10-04T07:55:53;14.30;;;8.60;;
64037;SDS011;54641;50.168;8.492;2022-10-04T07:58:27;9.90;;;7.10;;
64037;SDS011;54641;50.168;8.492;2022-10-04T08:01:05;11.50;;;7.80;;
64037;SDS011;54641;50.168;8.492;2022-10-04T08:06:34;14.30;;;8.30;;
64037;SDS011;54641;50.168;8.492;2022-10-04T08:09:10;12.80;;;8.50;;
64037;SDS011;54641;50.168;8.492;2022-10-04T08:11:52;15.00;;;8.50;;
64037;SDS011;54641;50.168;8.492;2022-10-04T08:14:35;16.10;;;8.40;;
64037;SDS011;54641;50.168;8.492;2022-10-04T08:17:19;14.10;;;8.50;;
64037;SDS011;54641;50.168;8.492;2022-10-04T08:19:57;12.30;;;7.10;;
64037;SDS011;54641;50.168;8.492;2022-10-04T08:22:46;13.60;;;8.50;;
64037;SDS011;54641;50.168;8.492;2022-10-04T08:25:25;12.70;;;8.30;;
64037;SDS011;54641;50.168;8.492;2022-10-04T08:28:02;13.10;;;9.10;;
64037;SDS011;54641;50.168;8.492;2022-10-04T08:30:58;16.60;;;9.10;;
64037;SDS011;54641;50.168;8.492;2022-10-04T08:33:41;34.80;;;8.80;;
64037;SDS011;54641;50.168;8.492;2022-10-04T08:36:19;9.60;;;6.70;;
64037;SDS011;54641;50.168;8.492;2022-10-04T08:38:56;11.80;;;7.80;;
64037;SDS011;54641;50.168;8.492;2022-10-04T08:47:58;9.80;;;6.10;;
64037;SDS011;54641;50.168;8.492;2022-10-04T08:50:54;10.10;;;6.20;;
64037;SDS011;54641;50.168;8.492;2022-10-04T08:57:11;11.90;;;7.50;;
64037;SDS011;54641;50.168;8.492;2022-10-04T09:08:28;10.90;;;5.80;;
64037;SDS011;54641;50.168;8.492;2022-10-04T09:11:19;9.30;;;4.90;;
64037;SDS011;54641;50.168;8.492;2022-10-04T09:14:00;9.50;;;5.50;;
64037;SDS011;54641;50.168;8.492;2022-10-04T09:16:40;7.30;;;4.90;;
64037;SDS011;54641;50.168;8.492;2022-10-04T09:19:21;9.30;;;5.70;;
64037;SDS011;54641;50.168;8.492;2022-10-04T09:22:04;7.60;;;4.20;;
64037;SDS011;54641;50.168;8.492;2022-10-04T09:25:01;8.60;;;4.00;;
64037;SDS011;54641;50.168;8.492;2022-10-04T09:31:03;8.70;;;5.20;;
64037;SDS011;54641;50.168;8.492;2022-10-04T09:33:53;8.40;;;4.80;;
64037;SDS011;54641;50.168;8.492;2022-10-04T09:36:58;8.10;;;5.00;;
64037;SDS011;54641;50.168;8.492;2022-10-04T09:39:43;7.80;;;4.50;;
64037;SDS011;54641;50.168;8.492;2022-10-04T09:42:25;7.70;;;4.80;;
64037;SDS011;54641;50.168;8.492;2022-10-04T09:45:19;9.70;;;4.70;;
64037;SDS011;54641;50.168;8.492;2022-10-04T09:48:13;7.70;;;4.60;;
64037;SDS011;54641;50.168;8.492;2022-10-04T09:54:03;6.10;;;4.60;;
64037;SDS011;54641;50.168;8.492;2022-10-04T09:56:50;7.70;;;4.80;;
64037;SDS011;54641;50.168;8.492;2022-10-04T10:02:37;5.80;;;4.40;;
64037;SDS011;54641;50.168;8.492;2022-10-04T10:05:24;7.90;;;4.60;;
64037;SDS011;54641;50.168;8.492;2022-10-04T10:08:04;5.70;;;3.80;;
64037;SDS011;54641;50.168;8.492;2022-10-04T10:10:41;9.20;;;4.80;;
64037;SDS011;54641;50.168;8.492;2022-10-04T10:13:42;6.50;;;4.00;;
64037;SDS011;54641;50.168;8.492;2022-10-04T10:16:31;5.40;;;3.80;;
64037;SDS011;54641;50.168;8.492;2022-10-04T10:19:19;7.80;;;5.00;;
64037;SDS011;54641;50.168;8.492;2022-10-04T10:22:03;8.40;;;4.30;;
64037;SDS011;54641;50.168;8.492;2022-10-04T10:24:58;7.30;;;3.50;;
64037;SDS011;54641;50.168;8.492;2022-10-04T10:27:54;6.90;;;4.00;;
64037;SDS011;54641;50.168;8.492;2022-10-04T10:30:44;5.90;;;3.30;;
64037;SDS011;54641;50.168;8.492;2022-10-04T10:33:45;11.10;;;4.20;;
64037;SDS011;54641;50.168;8.492;2022-10-04T10:36:43;7.40;;;4.00;;
64037;SDS011;54641;50.168;8.492;2022-10-04T10:42:45;8.20;;;4.40;;
64037;SDS011;54641;50.168;8.492;2022-10-04T10:48:14;7.00;;;4.10;;
64037;SDS011;54641;50.168;8.492;2022-10-04T10:50:56;9.70;;;4.80;;
64037;SDS011;54641;50.168;8.492;2022-10-04T10:53:37;8.20;;;3.90;;
64037;SDS011;54641;50.168;8.492;2022-10-04T10:56:44;7.50;;;4.10;;
64037;SDS011;54641;50.168;8.492;2022-10-04T10:59:41;6.30;;;3.70;;
64037;SDS011;54641;50.168;8.492;2022-10-04T11:06:04;5.60;;;3.40;;
64037;SDS011;54641;50.168;8.492;2022-10-04T11:29:20;6.00;;;3.80;;
64037;SDS011;54641;50.168;8.492;2022-10-04T11:32:02;5.90;;;3.30;;
64037;SDS011;54641;50.168;8.492;2022-10-04T11:34:54;5.90;;;3.80;;
64037;SDS011;54641;50.168;8.492;2022-10-04T11:37:51;5.80;;;4.00;;
64037;SDS011;54641;50.168;8.492;2022-10-04T11:40:32;5.60;;;4.10;;
64037;SDS011;54641;50.168;8.492;2022-10-04T11:43:28;8.40;;;4.40;;
64037;SDS011;54641;50.168;8.492;2022-10-04T11:48:50;8.70;;;4.50;;
64037;SDS011;54641;50.168;8.492;2022-10-04T11:57:27;8.20;;;5.30;;
64037;SDS011;54641;50.168;8.492;2022-10-04T12:00:05;7.70;;;5.20;;
64037;SDS011;54641;50.168;8.492;2022-10-04T12:02:48;7.40;;;4.60;;
64037;SDS011;54641;50.168;8.492;2022-10-04T12:08:28;6.60;;;4.70;;
64037;SDS011;54641;50.168;8.492;2022-10-04T12:11:21;8.60;;;4.40;;
64037;SDS011;54641;50.168;8.492;2022-10-04T12:14:19;6.60;;;4.70;;
64037;SDS011;54641;50.168;8.492;2022-10-04T12:17:14;8.70;;;4.70;;
64037;SDS011;54641;50.168;8.492;2022-10-04T12:23:12;6.80;;;4.90;;
64037;SDS011;54641;50.168;8.492;2022-10-04T12:26:04;8.50;;;5.00;;
64037;SDS011;54641;50.168;8.492;2022-10-04T12:28:53;6.00;;;4.70;;
64037;SDS011;54641;50.168;8.492;2022-10-04T12:31:35;8.90;;;5.20;;
64037;SDS011;54641;50.168;8.492;2022-10-04T12:34:14;7.70;;;4.60;;
64037;SDS011;54641;50.168;8.492;2022-10-04T12:37:04;7.90;;;5.20;;
64037;SDS011;54641;50.168;8.492;2022-10-04T12:39:47;8.30;;;4.40;;
64037;SDS011;54641;50.168;8.492;2022-10-04T12:42:30;7.40;;;5.10;;
64037;SDS011;54641;50.168;8.492;2022-10-04T12:45:15;6.80;;;4.60;;
64037;SDS011;54641;50.168;8.492;2022-10-04T12:48:06;8.10;;;4.40;;
64037;SDS011;54641;50.168;8.492;2022-10-04T12:50:47;8.10;;;4.70;;
64037;SDS011;54641;50.168;8.492;2022-10-04T12:53:32;7.40;;;4.80;;
64037;SDS011;54641;50.168;8.492;2022-10-04T12:58:49;7.50;;;4.90;;
64037;SDS011;54641;50.168;8.492;2022-10-04T13:01:28;8.70;;;4.60;;
64037;SDS011;54641;50.168;8.492;2022-10-04T13:04:10;6.90;;;5.10;;
64037;SDS011;54641;50.168;8.492;2022-10-04T13:06:52;8.10;;;5.90;;
64037;SDS011;54641;50.168;8.492;2022-10-04T13:09:31;6.90;;;5.20;;
64037;SDS011;54641;50.168;8.492;2022-10-04T13:12:12;7.30;;;4.70;;
64037;SDS011;54641;50.168;8.492;2022-10-04T13:15:00;6.90;;;5.00;;
64037;SDS011;54641;50.168;8.492;2022-10-04T13:17:47;7.50;;;5.50;;
64037;SDS011;54641;50.168;8.492;2022-10-04T13:23:12;7.20;;;5.40;;
64037;SDS011;54641;50.168;8.492;2022-10-04T13:28:55;7.70;;;5.10;;
64037;SDS011;54641;50.168;8.492;2022-10-04T13:31:33;6.80;;;5.00;;
64037;SDS011;54641;50.168;8.492;2022-10-04T13:34:09;7.90;;;4.30;;
64037;SDS011;54641;50.168;8.492;2022-10-04T13:46:14;7.80;;;4.30;;
64037;SDS011;54641;50.168;8.492;2022-10-04T13:48:51;7.80;;;5.30;;
64037;SDS011;54641;50.168;8.492;2022-10-04T13:51:30;8.20;;;4.40;;
64037;SDS011;54641;50.168;8.492;2022-10-04T13:54:20;6.50;;;3.70;;
64037;SDS011;54641;50.168;8.492;2022-10-04T13:57:18;9.50;;;4.20;;
64037;SDS011;54641;50.168;8.492;2022-10-04T13:59:52;9.20;;;4.90;;
64037;SDS011;54641;50.168;8.492;2022-10-04T14:17:51;6.10;;;4.70;;
64037;SDS011;54641;50.168;8.492;2022-10-04T14:27:06;6.90;;;4.20;;
64037;SDS011;54641;50.168;8.492;2022-10-04T14:30:01;8.00;;;4.40;;
64037;SDS011;54641;50.168;8.492;2022-10-04T14:35:42;7.80;;;4.10;;
64037;SDS011;54641;50.168;8.492;2022-10-04T14:41:21;8.20;;;4.70;;
64037;SDS011;54641;50.168;8.492;2022-10-04T14:47:17;7.40;;;4.80;;
64037;SDS011;54641;50.168;8.492;2022-10-04T14:50:32;6.60;;;4.30;;
64037;SDS011;54641;50.168;8.492;2022-10-04T14:53:18;7.40;;;3.90;;
64037;SDS011;54641;50.168;8.492;2022-10-04T14:55:56;9.70;;;4.20;;
64037;SDS011;54641;50.168;8.492;2022-10-04T14:58:48;7.60;;;4.30;;
64037;SDS011;54641;50.168;8.492;2022-10-04T15:01:26;7.10;;;4.20;;
64037;SDS011;54641;50.168;8.492;2022-10-04T15:06:53;8.60;;;5.00;;
64037;SDS011;54641;50.168;8.492;2022-10-04T15:12:38;10.30;;;4.20;;
64037;SDS011;54641;50.168;8.492;2022-10-04T15:15:34;8.10;;;4.50;;
64037;SDS011;54641;50.168;8.492;2022-10-04T15:18:31;10.60;;;5.80;;
64037;SDS011;54641;50.168;8.492;2022-10-04T15:21:10;9.80;;;3.80;;
64037;SDS011;54641;50.168;8.492;2022-10-04T15:24:09;6.60;;;3.90;;
64037;SDS011;54641;50.168;8.492;2022-10-04T15:26:52;9.10;;;4.60;;
64037;SDS011;54641;50.168;8.492;2022-10-04T15:29:47;9.20;;;4.10;;
64037;SDS011;54641;50.168;8.492;2022-10-04T15:32:23;8.50;;;4.30;;
64037;SDS011;54641;50.168;8.492;2022-10-04T15:35:04;8.60;;;4.80;;
64037;SDS011;54641;50.168;8.492;2022-10-04T15:37:49;9.00;;;4.80;;
64037;SDS011;54641;50.168;8.492;2022-10-04T15:40:29;9.20;;;4.50;;
64037;SDS011;54641;50.168;8.492;2022-10-04T15:43:16;7.20;;;4.00;;
64037;SDS011;54641;50.168;8.492;2022-10-04T15:45:53;9.80;;;4.70;;
64037;SDS011;54641;50.168;8.492;2022-10-04T15:48:36;7.90;;;4.30;;
64037;SDS011;54641;50.168;8.492;2022-10-04T15:51:16;9.70;;;4.30;;
64037;SDS011;54641;50.168;8.492;2022-10-04T15:57:00;7.50;;;4.30;;
64037;SDS011;54641;50.168;8.492;2022-10-04T15:59:42;6.90;;;4.30;;
64037;SDS011;54641;50.168;8.492;2022-10-04T16:02:28;7.20;;;3.80;;
64037;SDS011;54641;50.168;8.492;2022-10-04T16:08:12;10.00;;;4.10;;
64037;SDS011;54641;50.168;8.492;2022-10-04T16:11:02;9.30;;;4.00;;
64037;SDS011;54641;50.168;8.492;2022-10-04T16:13:55;8.30;;;4.20;;
64037;SDS011;54641;50.168;8.492;2022-10-04T16:19:59;6.20;;;3.60;;
64037;SDS011;54641;50.168;8.492;2022-10-04T16:22:47;7.30;;;4.10;;
64037;SDS011;54641;50.168;8.492;2022-10-04T16:25:51;6.90;;;4.00;;
64037;SDS011;54641;50.168;8.492;2022-10-04T16:28:23;8.30;;;4.30;;
64037;SDS011;54641;50.168;8.492;2022-10-04T16:31:12;7.70;;;4.10;;
64037;SDS011;54641;50.168;8.492;2022-10-04T16:33:52;5.90;;;3.60;;
64037;SDS011;54641;50.168;8.492;2022-10-04T16:36:27;8.80;;;4.20;;
64037;SDS011;54641;50.168;8.492;2022-10-04T16:39:11;8.00;;;4.10;;
64037;SDS011;54641;50.168;8.492;2022-10-04T16:42:05;10.80;;;4.00;;
64037;SDS011;54641;50.168;8.492;2022-10-04T16:44:47;6.90;;;4.20;;
64037;SDS011;54641;50.168;8.492;2022-10-04T16:47:21;7.90;;;4.00;;
64037;SDS011;54641;50.168;8.492;2022-10-04T16:49:54;6.40;;;4.50;;
64037;SDS011;54641;50.168;8.492;2022-10-04T16:52:33;6.30;;;4.00;;
64037;SDS011;54641;50.168;8.492;2022-10-04T17:04:45;8.90;;;5.60;;
64037;SDS011;54641;50.168;8.492;2022-10-04T17:07:33;8.80;;;5.80;;
64037;SDS011;54641;50.168;8.492;2022-10-04T17:13:06;12.50;;;6.90;;
64037;SDS011;54641;50.168;8.492;2022-10-04T17:15:47;9.70;;;7.40;;
64037;SDS011;54641;50.168;8.492;2022-10-04T17:18:27;7.60;;;4.10;;
64037;SDS011;54641;50.168;8.492;2022-10-04T17:21:03;9.00;;;4.40;;
64037;SDS011;54641;50.168;8.492;2022-10-04T17:26:37;9.10;;;4.30;;
64037;SDS011;54641;50.168;8.492;2022-10-04T17:29:19;11.90;;;4.20;;
64037;SDS011;54641;50.168;8.492;2022-10-04T17:31:57;8.90;;;5.20;;
64037;SDS011;54641;50.168;8.492;2022-10-04T17:34:37;7.20;;;4.40;;
64037;SDS011;54641;50.168;8.492;2022-10-04T17:37:16;8.30;;;4.20;;
64037;SDS011;54641;50.168;8.492;2022-10-04T17:39:53;6.80;;;4.90;;
64037;SDS011;54641;50.168;8.492;2022-10-04T17:42:38;7.20;;;4.20;;
64037;SDS011;54641;50.168;8.492;2022-10-04T17:45:15;8.00;;;4.70;;
64037;SDS011;54641;50.168;8.492;2022-10-04T17:47:55;9.90;;;5.20;;
64037;SDS011;54641;50.168;8.492;2022-10-04T17:50:49;7.60;;;4.60;;
64037;SDS011;54641;50.168;8.492;2022-10-04T17:53:44;6.90;;;5.00;;
64037;SDS011;54641;50.168;8.492;2022-10-04T17:56:33;5.60;;;4.10;;
64037;SDS011;54641;50.168;8.492;2022-10-04T17:59:07;9.90;;;4.40;;
64037;SDS011;54641;50.168;8.492;2022-10-04T18:01:41;7.80;;;3.50;;
64037;SDS011;54641;50.168;8.492;2022-10-04T18:04:15;9.80;;;4.20;;
64037;SDS011;54641;50.168;8.492;2022-10-04T18:06:52;9.00;;;4.40;;
64037;SDS011;54641;50.168;8.492;2022-10-04T18:09:26;8.20;;;3.80;;
64037;SDS011;54641;50.168;8.492;2022-10-04T18:12:00;6.20;;;3.90;;
64037;SDS011;54641;50.168;8.492;2022-10-04T18:14:44;11.80;;;4.00;;
64037;SDS011;54641;50.168;8.492;2022-10-04T18:17:27;6.00;;;3.60;;
64037;SDS011;54641;50.168;8.492;2022-10-04T18:22:58;8.40;;;4.10;;
64037;SDS011;54641;50.168;8.492;2022-10-04T18:25:31;8.80;;;4.10;;
64037;SDS011;54641;50.168;8.492;2022-10-04T18:28:04;7.20;;;4.60;;
64037;SDS011;54641;50.168;8.492;2022-10-04T18:30:51;7.00;;;4.20;;
64037;SDS011;54641;50.168;8.492;2022-10-04T18:33:30;7.40;;;4.00;;
64037;SDS011;54641;50.168;8.492;2022-10-04T18:36:17;8.00;;;3.60;;
64037;SDS011;54641;50.168;8.492;2022-10-04T18:41:54;8.70;;;4.10;;
64037;SDS011;54641;50.168;8.492;2022-10-04T18:44:28;7.30;;;4.20;;
64037;SDS011;54641;50.168;8.492;2022-10-04T18:47:15;10.40;;;6.60;;
64037;SDS011;54641;50.168;8.492;2022-10-04T18:49:49;13.40;;;6.50;;
64037;SDS011;54641;50.168;8.492;2022-10-04T18:52:24;10.40;;;5.80;;
64037;SDS011;54641;50.168;8.492;2022-10-04T18:55:09;9.70;;;6.40;;